METAR Analyzer

一覧表示

Hello, Guest. (Login)

RJTT/HND  -  東京/羽田

観測日時
2021-11-28 20:00 (UTC) (45分前)
気温
7
露点
1
湿数
6
相対湿度
65.6%
QNH
1031.2hPa
推定現地気圧
1030.5hPa
推定海面気圧
1031.3hPa
体感温度
-1.8
(無風時)
10.4
HI
5.5
気温前日比
±0
体感温度前日比
+2.1
HI前日比
+0.4
水平視程
>10000m
鉛直視程
データなし
雲底高度
No dense clouds
V/I
VMC (VFR)
RVR
No RVR data
卓越風
6kt from 350°
ガスト
No gust
降水
報告なし
その他の天気
報告なし
少しの(1/8) 積雲 @ 3000ft AGL

RJTT 282000Z 35006KT 9999 FEW030 07/01 Q1031 NOSIG RMK 1CU030 A3045

RJAA/NRT  -  東京/成田

観測日時
2021-11-28 20:00 (UTC) (45分前)
気温
1
露点
-1
湿数
2
相対湿度
86.5%
QNH
1030.8hPa
推定現地気圧
1029.5hPa
推定海面気圧
1030.9hPa
体感温度
-4.3
(無風時)
5
HI
-0.6
気温前日比
-1
体感温度前日比
-4.4
HI前日比
-1
水平視程
>10000m
鉛直視程
データなし
雲底高度
No dense clouds
V/I
VMC (VFR)
RVR
No RVR data
卓越風
2kt from 320°
ガスト
No gust
降水
報告なし
その他の天気
報告なし
少しの(1/8) 積雲 @ 2000ft AGL

RJAA 282000Z 32002KT 9999 FEW020 01/M01 Q1030 NOSIG RMK 1CU020 A3044

RJTF  -  調布